Flight Track Log - Related Links

Times and Time Zones

All times are in EDT time to prevent confusion due to time zone crossing. See the AWE710 flight status page for this flight to view local times or setup timezone preferences in your user account.

Time Position Orientation Groundspeed Altitude Reporting Facility
EDT Latitude Longitude Course Direction KTS MPH feet Rate Location/Type
Sat 06:56:24 PM 39.8577 -75.2955 227° Southwest 185 213 1,100  Level FlightAware ADS-B
Sat 06:56:36 PM 39.8498 -75.3046 221° Southwest 202 232 1,300 1,071 Climbing FlightAware ADS-B
Sat 06:56:52 PM 39.8381 -75.3175 220° Southwest 220 253 1,600 1,500 Climbing FlightAware ADS-B
Sat 06:57:04 PM 39.8285 -75.3281 220° Southwest 231 266 2,000 2,571 Climbing FlightAware ADS-B
Sat 06:57:20 PM 39.8153 -75.3424 220° Southwest 232 267 2,800 3,000 Climbing FlightAware ADS-B
Sat 06:57:28 PM 39.8086 -75.3494 219° Southwest 233 268 3,200 3,273 Climbing FlightAware ADS-B
Sat 06:57:31 PM 39.8053 -75.3524 215° Southwest 235 270 3,400 3,000 Climbing FlightAware ADS-B
Sat 06:57:34 PM 39.8024 -75.3544 208° Southwest 237 273 3,500 1,714 Climbing FlightAware ADS-B
Sat 06:57:38 PM 39.7988 -75.3564 203° Southwest 237 273 3,600 2,571 Climbing FlightAware ADS-B
Sat 06:57:41 PM 39.7955 -75.3580 200° South 237 273 3,800 3,429 Climbing FlightAware ADS-B
Sat 06:57:45 PM 39.7920 -75.3592 195° South 237 273 4,000 2,667 Climbing FlightAware ADS-B
Sat 06:57:50 PM 39.7865 -75.3601 187° South 239 275 4,200 2,250 Climbing FlightAware ADS-B
Sat 06:57:53 PM 39.7824 -75.3602 181° South 241 277 4,300 2,400 Climbing FlightAware ADS-B
Sat 06:58:00 PM 39.7753 -75.3595 176° South 243 280 4,600 3,000 Climbing FlightAware ADS-B
Sat 06:58:05 PM 39.7688 -75.3582 171° South 243 280 4,900 3,143 Climbing FlightAware ADS-B
Sat 06:58:21 PM 39.7521 -75.3537 168° South 242 278 5,700 2,903 Climbing FlightAware ADS-B
Sat 06:58:36 PM 39.7353 -75.3491 168° South 247 284 6,400 2,516 Climbing FlightAware ADS-B
Sat 06:58:52 PM 39.7173 -75.3444 169° South 254 292 7,000 2,294 Climbing FlightAware ADS-B
Sat 06:59:10 PM 39.6962 -75.3391 169° South 261 300 7,700 2,690 Climbing FlightAware ADS-B
Sat 06:59:21 PM 39.6824 -75.3353 168° South 263 303 8,300 2,800 Climbing FlightAware ADS-B
Sat 06:59:25 PM 39.6785 -75.3340 166° South 263 303 8,400 1,714 Climbing FlightAware ADS-B
Sat 06:59:28 PM 39.6749 -75.3321 158° South 264 304 8,500 3,000 Climbing FlightAware ADS-B
Sat 06:59:31 PM 39.6716 -75.3298 152° Southeast 267 307 8,700 2,667 Climbing FlightAware ADS-B
Sat 06:59:37 PM 39.6656 -75.3240 143° Southeast 272 313 8,900 1,636 Climbing FlightAware ADS-B
Sat 06:59:42 PM 39.6611 -75.3177 133° Southeast 278 320 9,000 1,000 Climbing FlightAware ADS-B
Sat 06:59:49 PM 39.6565 -75.3079 121° Southeast 284 327 9,100 1,200 Climbing FlightAware ADS-B
Sat 06:59:52 PM 39.6548 -75.3020 111° Southeast 289 333 9,200 1,714 Climbing FlightAware ADS-B
Sat 06:59:56 PM 39.6531 -75.2955 109° East 292 336 9,300 1,500 Climbing FlightAware ADS-B
Sat 07:00:00 PM 39.6522 -75.2888 100° East 295 339 9,400 2,250 Climbing FlightAware ADS-B
Sat 07:00:04 PM 39.6515 -75.2819 98° East 295 339 9,600 2,667 Climbing FlightAware ADS-B
Sat 07:00:09 PM 39.6515 -75.2734 90° East 295 339 9,800 2,000 Climbing FlightAware ADS-B
Sat 07:00:13 PM 39.6519 -75.2656 86° East 295 339 9,900 2,143 Climbing FlightAware ADS-B
Sat 07:00:23 PM 39.6548 -75.2491 77° East 295 339 10,300 2,049 Climbing FlightAware ADS-B
Sat 07:00:54 PM 39.6699 -75.1961 70° East 317 365 11,300 1,333 Climbing FlightAware ADS-B
Sat 07:01:26 PM 39.6869 -75.1353 70° East 356 410 11,700 369 Climbing FlightAware ADS-B
Sat 07:01:59 PM 39.7061 -75.0677 70° East 370 426 11,700  Level FlightAware ADS-B
Sat 07:02:30 PM 39.7236 -75.0030 71° East 367 422 11,700  Level FlightAware ADS-B
Sat 07:03:02 PM 39.7417 -74.9371 70° East 367 422 11,700 381 Level FlightAware ADS-B
Sat 07:03:33 PM 39.7595 -74.8713 71° East 379 436 12,100 1,406 Climbing FlightAware ADS-B
Sat 07:04:06 PM 39.7794 -74.7982 70° East 397 457 13,200 2,211 Climbing FlightAware ADS-B
Sat 07:04:30 PM 39.7940 -74.7421 71° East 416 479 14,200 2,512 Climbing FlightAware ADS-B
Sat 07:04:49 PM 39.8024 -74.6949 77° East 424 488 15,000 1,680 Climbing FlightAware ADS-B
Sat 07:05:20 PM 39.8108 -74.6138 82° East 435 501 15,600 677 Climbing FlightAware ADS-B
Sat 07:05:51 PM 39.8172 -74.5351 84° East 432 497 15,700 98 Climbing FlightAware ADS-B
Sat 07:06:21 PM 39.8230 -74.4571 84° East 428 493 15,700  Level FlightAware ADS-B
Sat 07:06:44 PM 39.8253 -74.3979 87° East 429 494 15,700  Level FlightAware ADS-B
Sat 07:06:54 PM 39.8273 -74.3728 84° East 429 494 15,700 1,111 Level FlightAware ADS-B
Sat 07:07:11 PM 39.8344 -74.3299 78° East 430 495 16,200 2,167 Climbing FlightAware ADS-B
Sat 07:07:30 PM 39.8459 -74.2832 72° East 431 496 17,000 2,471 Climbing FlightAware ADS-B
Sat 07:08:02 PM 39.8689 -74.2046 69° East 439 505 18,300 2,260 Climbing FlightAware ADS-B
Sat 07:08:47 PM 39.9000 -74.0970 69° East 450 518 19,900 2,192 Climbing FlightAware ADS-B
Sat 07:08:54 PM 39.9066 -74.0752 68° East 451 519 20,200 2,154 Climbing FlightAware ADS-B
Sat 07:09:26 PM 39.9306 -73.9931 69° East 461 531 21,300 1,938 Climbing FlightAware ADS-B
Sat 07:09:59 PM 39.9561 -73.9067 69° East 470 541 22,300 1,810 Climbing FlightAware ADS-B
Sat 07:10:29 PM 39.9799 -73.8259 69° East 480 552 23,200 1,967 Climbing FlightAware ADS-B
Sat 07:11:00 PM 40.0047 -73.7423 69° East 486 559 24,300 1,935 Climbing FlightAware ADS-B
Sat 07:11:31 PM 40.0295 -73.6572 69° East 496 571 25,200 1,672 Climbing FlightAware ADS-B
Sat 07:12:01 PM 40.0544 -73.5729 69° East 503 579 26,000 1,548 Climbing FlightAware ADS-B
Sat 07:12:33 PM 40.0814 -73.4810 69° East 511 588 26,800 1,781 Climbing FlightAware ADS-B
Sat 07:13:05 PM 40.1087 -73.3880 69° East 512 589 27,900 2,031 Climbing FlightAware ADS-B
Sat 07:13:38 PM 40.1361 -73.2941 69° East 511 588 29,000 1,792 Climbing FlightAware ADS-B
Sat 07:14:22 PM 40.1710 -73.1730 69° East 512 589 30,200 1,821 Climbing FlightAware ADS-B
Sat 07:14:34 PM 40.1833 -73.1307 69° East 511 588 30,700 2,298 Climbing FlightAware ADS-B
Sat 07:15:09 PM 40.2117 -73.0325 69° East 503 579 32,000 1,970 Climbing FlightAware ADS-B
Sat 07:15:41 PM 40.2379 -72.9405 70° East 502 578 32,900 1,645 Climbing FlightAware ADS-B
Sat 07:16:11 PM 40.2623 -72.8550 69° East 500 575 33,700 1,548 Climbing FlightAware ADS-B
Sat 07:16:43 PM 40.2877 -72.7651 70° East 499 574 34,500 821 Climbing FlightAware ADS-B
Sat 07:17:46 PM 40.3384 -72.5845 70° East 509 586 35,000 275 Climbing FlightAware ADS-B
Sat 07:18:32 PM 40.3740 -72.4550 70° East 509 586 35,000  Level FlightAware ADS-B
Sat 07:18:46 PM 40.3864 -72.4118 69° East 510 587 35,000  Level FlightAware ADS-B
Sat 07:19:17 PM 40.4100 -72.3280 70° East 503 579 35,000  Level FlightAware ADS-B
Sat 07:19:57 PM 40.4400 -72.2190 70° East 502 578 35,000  Level FlightAware ADS-B
Sat 07:20:32 PM 40.4660 -72.1240 70° East 502 578 35,000  Level FlightAware ADS-B
Sat 07:20:47 PM 40.4826 -72.0647 70° East 500 575 35,000  Level FlightAware ADS-B
Sat 07:22:02 PM 40.5400 -71.8560 70° East 498 573 35,000  Level FlightAware ADS-B
Sat 07:22:42 PM 40.5680 -71.7540 70° East 498 573 35,000  Level FlightAware ADS-B
Sat 07:23:27 PM 40.6030 -71.6210 71° East 499 574 35,000  Level FlightAware ADS-B
Sat 07:23:39 PM 40.6159 -71.5751 70° East 501 577 35,000  Level FlightAware ADS-B
Sat 07:24:22 PM 40.6492 -71.4518 70° East 501 577 35,000  Level FlightAware ADS-B
Sat 07:25:02 PM 40.6750 -71.3570 70° East 501 577 35,000  Level FlightAware ADS-B
Sat 07:25:42 PM 40.7020 -71.2590 70° East 501 577 35,000  Level FlightAware ADS-B
Sat 07:26:47 PM 40.7550 -71.0580 71° East 35,000  Level FlightAware ADS-B
Sat 07:27:37 PM 40.7950 -70.9050 71° East 505 581 35,000  Level FlightAware ADS-B
Sat 07:28:12 PM 40.8220 -70.8030 71° East 505 581 35,000  Level FlightAware ADS-B
Sat 07:29:02 PM 40.8590 -70.6600 71° East 505 581 35,000  Level FlightAware ADS-B
Sat 07:29:57 PM 40.8980 -70.5110 71° East 504 580 35,000  Level FlightAware ADS-B
Sat 07:30:42 PM 40.9340 -70.3720 71° East 506 582 35,000  Level FlightAware ADS-B
Sat 07:31:27 PM 40.9690 -70.2350 71° East 505 581 35,000  Level FlightAware ADS-B
Sat 07:32:07 PM 40.9990 -70.1200 71° East 505 581 35,000  Level FlightAware ADS-B
Sat 07:32:42 PM 41.0240 -70.0210 71° East 506 582 35,000  Level FlightAware ADS-B
Sat 07:33:32 PM 41.0600 -69.8780 71° East 507 583 35,000  Level FlightAware ADS-B
Sat 07:34:12 PM 41.0910 -69.7570 71° East 507 583 35,000  Level FlightAware ADS-B
Sat 07:35:02 PM 41.1330 -69.6050 70° East 508 585 35,000  Level FlightAware ADS-B
Sat 07:35:42 PM 41.1650 -69.4910 70° East 510 587 35,000  Level FlightAware ADS-B
Sat 07:36:47 PM 41.2170 -69.3010 70° East 510 587 35,000  Level FlightAware ADS-B
Sat 07:37:32 PM 41.2530 -69.1660 70° East 511 588 35,000  Level FlightAware ADS-B
Sat 07:38:32 PM 41.2990 -68.9910 71° East 511 588 35,000  Level FlightAware ADS-B
Sat 07:39:22 PM 41.3320 -68.8650 71° East 511 588 35,000  Level FlightAware ADS-B
Sat 07:40:02 PM 41.3580 -68.7630 71° East 511 588 35,000  Level FlightAware ADS-B
Sat 07:40:42 PM 41.3840 -68.6620 71° East 511 588 35,000  Level FlightAware ADS-B
Sat 07:41:22 PM 41.4100 -68.5610 71° East 511 588 35,000  Level FlightAware ADS-B
Sat 07:41:57 PM 41.4630 -68.3710 70° East 517 595 35,000  Level FlightAware ADS-B
Sat 07:42:52 PM 41.5010 -68.2230 71° East 517 595 35,000  Level FlightAware ADS-B
Sat 07:43:32 PM 41.5270 -68.1200 71° East 517 595 35,000  Level FlightAware ADS-B
Sat 07:44:12 PM 41.5540 -68.0170 71° East 517 595 35,000  Level FlightAware ADS-B
Sat 07:44:52 PM 41.5800 -67.9140 71° East 517 595 35,000  Level FlightAware ADS-B
Sat 07:45:32 PM 41.6070 -67.8110 71° East 517 595 35,000  Level FlightAware ADS-B
Sat 07:46:22 PM 41.6400 -67.6830 71° East 517 595 35,000  Level FlightAware ADS-B
Sat 07:47:02 PM 41.6660 -67.5800 71° East 517 595 35,000  Level FlightAware ADS-B
Sat 07:47:42 PM 41.6930 -67.4770 71° East 517 595 35,000  Level FlightAware ADS-B
Sat 07:48:22 PM 41.7190 -67.3740 71° East 517 595 35,000  Level FlightAware ADS-B
Sat 07:49:02 PM 41.7460 -67.2710 71° East 517 595 35,000  Level FlightAware ADS-B
Sat 07:49:42 PM 41.7720 -67.1680 71° East 517 595 35,000  Level FlightAware ADS-B
Sat 07:50:32 PM 41.8050 -67.0390 71° East 517 595 35,000  Level FlightAware ADS-B
Sat 07:51:12 PM 41.8320 -66.9360 71° East 517 595 35,000  Level FlightAware ADS-B
Sat 07:51:52 PM 41.8580 -66.8330 71° East 517 595 35,000  Level FlightAware ADS-B
Sat 07:52:22 PM 41.9500 -66.4167 71° East 530 610 35,000  Level Moncton Center
Sat 07:53:22 PM 42.0000 -66.2333 70° East 540 621 35,000  Level Moncton Center
Sat 07:54:22 PM 42.0500 -66.0333 71° East 540 621 35,000  Level Moncton Center
Sat 07:55:22 PM 42.1000 -65.8667 68° East 540 621 35,000 -500 Level Moncton Center
Sat 07:56:22 PM 42.1667 -65.6833 64° Northeast 550 633 34,000 -1,000 Descending Moncton Center
Sat 07:57:22 PM 42.2333 -65.4833 66° East 540 621 33,000 -500 Descending Moncton Center
Sat 07:58:22 PM 42.2833 -65.3000 70° East 540 621 33,000 -250 Level Moncton Center
Sat 07:59:22 PM 42.3333 -65.1000 71° East 540 621 32,500 -850 Descending Moncton Center
Sat 08:00:22 PM 42.3833 -64.9167 70° East 540 621 31,300 -750 Descending Moncton Center
Sat 08:01:22 PM 42.4333 -64.7167 71° East 530 610 31,000 -150 Descending Moncton Center
Sat 08:02:22 PM 42.5000 -64.5333 64° Northeast 540 621 31,000  Level Moncton Center
Sat 08:03:22 PM 42.5500 -64.3333 71° East 550 633 31,000  Level Moncton Center
Sat 08:04:22 PM 42.6000 -64.1500 70° East 550 633 31,000  Level Moncton Center
Sat 08:05:22 PM 42.6500 -63.9500 71° East 560 644 31,000  Level Moncton Center
Sat 08:06:22 PM 42.7167 -63.7333 67° East 550 633 31,000  Level Moncton Center
Sat 08:07:22 PM 42.7667 -63.5500 70° East 550 633 31,000  Level Moncton Center
Sat 08:08:22 PM 42.8167 -63.3500 71° East 550 633 31,000  Level Moncton Center
Sat 08:09:22 PM 42.8667 -63.1667 70° East 550 633 31,000  Level Moncton Center
Sat 08:10:22 PM 42.9000 -62.9667 77° East 550 633 31,000  Level Moncton Center
Sat 08:11:22 PM 42.9667 -62.7500 67° East 550 633 31,000  Level Moncton Center
Sat 08:12:22 PM 43.0167 -62.5667 69° East 550 633 31,000  Level Moncton Center
Sat 08:13:22 PM 43.0667 -62.3667 71° East 560 644 31,000  Level Moncton Center
Sat 08:14:19 PM 43.1333 -62.1667 65° Northeast 560 644 31,000  Level Gander Center
Sat 08:15:19 PM 43.1833 -61.9667 71° East 570 656 31,000  Level Gander Center
Sat 08:16:19 PM 43.2333 -61.7667 71° East 570 656 31,000  Level Gander Center
Sat 08:17:22 PM 43.2833 -61.5500 72° East 570 656 31,000  Level Moncton Center
Sat 08:18:22 PM 43.3333 -61.3500 71° East 560 644 31,000  Level Moncton Center
Sat 08:19:19 PM 43.3833 -61.1667 69° East 570 656 31,000  Level Gander Center
Sat 08:20:19 PM 43.4333 -60.9333 73° East 580 667 31,000  Level Gander Center
Sat 08:21:19 PM 43.4833 -60.7333 71° East 580 667 31,000  Level Gander Center
Sat 08:22:19 PM 43.5333 -60.5000 73° East 590 679 31,000  Level Gander Center
Sat 08:23:19 PM 43.5667 -60.3167 76° East 590 679 31,000  Level Gander Center
Sat 08:24:19 PM 43.6167 -60.0833 73° East 590 679 31,000  Level Gander Center
Sat 08:25:19 PM 43.6667 -59.8833 71° East 590 679 31,000  Level Gander Center
Sat 08:26:19 PM 43.7333 -59.6500 68° East 590 679 31,000  Level Gander Center
Sat 08:28:22 PM 43.8333 -59.2000 73° East 590 679 31,000  Level Moncton Center
Sat 08:29:22 PM 43.8667 -58.9667 79° East 600 690 31,000  Level Moncton Center
Sat 08:30:22 PM 43.9333 -58.7500 67° East 600 690 31,000  Level Moncton Center
Sat 08:31:22 PM 43.9667 -58.5500 77° East 610 702 31,000 4,103 Level Moncton Center
Sat 08:32:19 PM 44.0167 -58.3333 72° East 610 702 39,000  Climbing Gander Center
Sat 08:33:19 PM 44.0667 -58.1000 73° East 600 690 31,000 -2,133 Descending Gander Center
Sat 08:35:19 PM 44.1667 -57.6333 73° East 630 725 32,600 667 Climbing Gander Center
Sat 08:36:19 PM 44.2000 -57.4000 79° East 640 736 33,000 200 Climbing Gander Center
Sat 08:37:19 PM 44.2500 -57.1667 73° East 640 736 33,000  Level Gander Center
Sat 08:38:19 PM 44.3000 -56.9333 73° East 630 725 33,000  Level Gander Center
Sat 08:39:19 PM 44.3500 -56.6667 75° East 640 736 33,000  Level Gander Center
Sat 08:40:19 PM 44.4000 -56.4500 72° East 640 736 33,000  Level Gander Center
Sat 08:41:19 PM 44.4333 -56.2000 79° East 630 725 33,000  Level Gander Center
Sat 08:42:22 PM 44.4833 -55.9500 74° East 640 736 33,000  Level Moncton Center
Sat 08:43:19 PM 44.5000 -55.7500 83° East 630 725 33,000  Level Gander Center
Sat 08:44:19 PM 44.5333 -55.4667 81° East 640 736 33,000  Level Gander Center
Sat 08:45:19 PM 44.5500 -55.2167 85° East 630 725 33,000  Level Gander Center
Sat 08:46:19 PM 44.5833 -54.9833 79° East 650 748 33,000  Level Gander Center
Sat 08:47:19 PM 44.6167 -54.7167 80° East 650 748 33,000  Level Gander Center
Sat 08:48:19 PM 44.6333 -54.4833 84° East 650 748 33,000 800 Level Gander Center
Sat 08:49:19 PM 44.6500 -54.2333 85° East 650 748 34,600 1,900 Climbing Gander Center
Sat 08:50:19 PM 44.6833 -53.9833 79° East 640 736 36,800 1,700 Climbing Gander Center
Sat 08:51:19 PM 44.7000 -53.7500 84° East 590 679 38,000 600 Climbing Gander Center
Sat 08:52:19 PM 44.7167 -53.5333 84° East 570 656 38,000  Level Gander Center
Sat 08:53:19 PM 44.7333 -53.3167 84° East 580 667 38,000  Level Gander Center
Sat 08:54:19 PM 44.7500 -53.0833 84° East 590 679 38,000  Level Gander Center
Sat 08:55:19 PM 44.7667 -52.8667 84° East 590 679 38,000  Level Gander Center
Sat 08:56:19 PM 44.8000 -52.6333 79° East 600 690 38,000  Level Gander Center
Sat 08:57:19 PM 44.8167 -52.3833 85° East 600 690 38,000  Level Gander Center
Sat 08:58:19 PM 44.8333 -52.1500 84° East 590 679 38,000  Level Gander Center
Sat 08:59:19 PM 44.8333 -51.9333 90° East 590 679 38,000  Level Gander Center
Sat 09:00:19 PM 44.8500 -51.7167 84° East 580 667 38,000  Level Gander Center
Sat 09:01:19 PM 44.8833 -51.4833 79° East 590 679 38,000  Level Gander Center
Sat 09:02:19 PM 44.9000 -51.2500 84° East 600 690 38,000  Level Gander Center
Sat 09:03:19 PM 44.9000 -51.0000 90° East 620 713 38,000  Level Gander Center
Sat 09:04:19 PM 44.9167 -50.7667 84° East 620 713 38,000  Level Gander Center
Sat 09:05:19 PM 44.9333 -50.5333 84° East 620 713 38,000  Level Gander Center
Sat 09:06:19 PM 44.9500 -50.2833 85° East 630 725 38,000  Level Gander Center
Sat 09:07:19 PM 44.9667 -50.0500 84° East 640 736 38,000  Level Gander Center
Sat 09:08:19 PM 45.0000 -49.7833 70° East 640 736 38,000  Level Gander Center
Sat 09:08:26 PM 45.0000 -50.0000 70° East 590 679 38,000  Level ETMS Enhanced Traffic Management System
Sat 09:09:19 PM 45.0667 -49.5500 68° East 640 736 38,000  Level Gander Center
Sat 09:10:19 PM 45.1333 -49.3000 69° East 640 736 38,000  Level Gander Center
Sat 09:11:19 PM 45.1667 -49.0667 78° East 640 736 38,000  Level Gander Center
Sat 09:12:19 PM 45.2333 -48.8500 66° East 640 736 38,000  Level Gander Center
Sat 09:13:19 PM 45.2833 -48.6167 73° East 630 725 38,000  Level Gander Center
Sat 09:14:19 PM 45.3500 -48.3833 68° East 630 725 38,000  Level Gander Center
Sat 09:15:19 PM 45.4000 -48.1333 74° East 620 713 38,000  Level Gander Center
Sat 09:16:19 PM 45.4500 -47.9000 73° East 620 713 38,000  Level Gander Center
Sat 09:17:19 PM 45.5167 -47.6667 68° East 620 713 38,000  Level Gander Center
Sat 09:18:19 PM 45.5500 -47.4500 78° East 610 702 38,000  Level Gander Center
Sat 09:20:00 PM 45.6330 -47.0907 72° East  Level FlightAware Approximate
Sat 09:27:00 PM 45.9395 -45.7091 72° East  Level FlightAware Approximate
Sat 09:28:00 PM 45.9819 -45.5105 73° East  Level FlightAware Approximate
Sat 09:29:00 PM 46.0240 -45.3116 73° East  Level FlightAware Approximate
Sat 09:30:00 PM 46.0657 -45.1124 73° East  Level FlightAware Approximate
Sat 09:31:00 PM 46.1071 -44.9129 73° East  Level FlightAware Approximate
Sat 09:32:00 PM 46.1482 -44.7131 73° East  Level FlightAware Approximate
Sat 09:33:00 PM 46.1889 -44.5130 74° East  Level FlightAware Approximate
Sat 09:34:00 PM 46.2292 -44.3126 74° East  Level FlightAware Approximate
Sat 09:35:00 PM 46.2692 -44.1119 74° East  Level FlightAware Approximate
Sat 09:36:00 PM 46.3088 -43.9110 74° East  Level FlightAware Approximate
Sat 09:37:00 PM 46.3481 -43.7097 74° East  Level FlightAware Approximate
Sat 09:38:00 PM 46.3870 -43.5081 74° East  Level FlightAware Approximate
Sat 09:39:00 PM 46.4256 -43.3063 74° East  Level FlightAware Approximate
Sat 09:40:00 PM 46.4638 -43.1042 75° East  Level FlightAware Approximate
Sat 09:41:00 PM 46.5017 -42.9018 75° East  Level FlightAware Approximate
Sat 09:42:00 PM 46.5392 -42.6991 75° East  Level FlightAware Approximate
Sat 09:43:00 PM 46.5763 -42.4961 75° East  Level FlightAware Approximate
Sat 09:44:00 PM 46.6131 -42.2929 75° East  Level FlightAware Approximate
Sat 09:45:00 PM 46.6496 -42.0893 75° East  Level FlightAware Approximate
Sat 09:46:00 PM 46.6856 -41.8855 75° East  Level FlightAware Approximate
Sat 09:47:00 PM 46.7213 -41.6815 76° East  Level FlightAware Approximate
Sat 09:48:00 PM 46.7566 -41.4771 76° East  Level FlightAware Approximate
Sat 09:49:00 PM 46.7916 -41.2725 76° East  Level FlightAware Approximate
Sat 09:50:00 PM 46.8262 -41.0677 76° East  Level FlightAware Approximate
Sat 09:51:00 PM 46.8605 -40.8625 76° East  Level FlightAware Approximate
Sat 09:52:00 PM 46.8944 -40.6571 76° East  Level FlightAware Approximate
Sat 09:53:00 PM 46.9279 -40.4515 77° East  Level FlightAware Approximate
Sat 09:53:00 PM 47.0000 -40.0000 78° East 545 627 38,000  Level ETMS Enhanced Traffic Management System
Sat 09:54:00 PM 46.9610 -40.2456 77° East  Level FlightAware Approximate
Sat 09:55:00 PM 46.9938 -40.0394 77° East  Level FlightAware Approximate
Sat 09:56:00 PM 47.0244 -39.8317 78° East  Level FlightAware Approximate
Sat 09:57:00 PM 47.0542 -39.6243 78° East  Level FlightAware Approximate
Sat 09:58:00 PM 47.0836 -39.4167 78° East  Level FlightAware Approximate
Sat 09:59:00 PM 47.1126 -39.2089 78° East  Level FlightAware Approximate
Sat 10:00:00 PM 47.2691 -38.0329 79° East 545 627 38,000  Level FlightAware Transoceanic
Sat 10:01:00 PM 47.2969 -37.8132 80° East 545 627 38,000  Level FlightAware Transoceanic
Sat 10:02:00 PM 47.3243 -37.5932 80° East 545 627 38,000  Level FlightAware Transoceanic
Sat 10:03:00 PM 47.3512 -37.3730 80° East 545 627 38,000  Level FlightAware Transoceanic
Sat 10:04:00 PM 47.3778 -37.1525 80° East 545 627 38,000  Level FlightAware Transoceanic
Sat 10:05:00 PM 47.4039 -36.9318 80° East 545 627 38,000  Level FlightAware Transoceanic
Sat 10:06:00 PM 47.4296 -36.7110 80° East 545 627 38,000  Level FlightAware Transoceanic
Sat 10:07:00 PM 47.4549 -36.4899 80° East 545 627 38,000  Level FlightAware Transoceanic
Sat 10:08:00 PM 47.4797 -36.2686 81° East 545 627 38,000  Level FlightAware Transoceanic
Sat 10:09:00 PM 47.5042 -36.0470 81° East 545 627 38,000  Level FlightAware Transoceanic
Sat 10:10:00 PM 47.5282 -35.8253 81° East 545 627 38,000  Level FlightAware Transoceanic
Sat 10:11:00 PM 47.5517 -35.6034 81° East 545 627 38,000  Level FlightAware Transoceanic
Sat 10:12:00 PM 47.5749 -35.3813 81° East 545 627 38,000  Level FlightAware Transoceanic
Sat 10:13:00 PM 47.5976 -35.1590 81° East 545 627 38,000  Level FlightAware Transoceanic
Sat 10:14:00 PM 47.6199 -34.9365 82° East 545 627 38,000  Level FlightAware Transoceanic
Sat 10:15:00 PM 47.6417 -34.7138 82° East 545 627 38,000  Level FlightAware Transoceanic
Sat 10:16:00 PM 47.6631 -34.4909 82° East 545 627 38,000  Level FlightAware Transoceanic
Sat 10:17:00 PM 47.6841 -34.2678 82° East 545 627 38,000  Level FlightAware Transoceanic
Sat 10:18:00 PM 47.7047 -34.0446 82° East 545 627 38,000  Level FlightAware Transoceanic
Sat 10:19:00 PM 47.7248 -33.8212 82° East 545 627 38,000  Level FlightAware Transoceanic
Sat 10:20:00 PM 47.7445 -33.5976 83° East 545 627 38,000  Level FlightAware Transoceanic
Sat 10:21:00 PM 47.7637 -33.3739 83° East 545 627 38,000  Level FlightAware Transoceanic
Sat 10:22:00 PM 47.7826 -33.1499 83° East 545 627 38,000  Level FlightAware Transoceanic
Sat 10:23:00 PM 47.8009 -32.9259 83° East 545 627 38,000  Level FlightAware Transoceanic
Sat 10:24:00 PM 47.8189 -32.7016 83° East 545 627 38,000  Level FlightAware Transoceanic
Sat 10:25:00 PM 47.8364 -32.4773 83° East 545 627 38,000  Level FlightAware Transoceanic
Sat 10:26:00 PM 47.8535 -32.2527 84° East 545 627 38,000  Level FlightAware Transoceanic
Sat 10:27:00 PM 47.8701 -32.0281 84° East 545 627 38,000  Level FlightAware Transoceanic
Sat 10:28:00 PM 47.8863 -31.8032 84° East 545 627 38,000  Level FlightAware Transoceanic
Sat 10:29:00 PM 47.9021 -31.5783 84° East 545 627 38,000  Level FlightAware Transoceanic
Sat 10:30:00 PM 47.9174 -31.3532 84° East 545 627 38,000  Level FlightAware Transoceanic
Sat 10:31:00 PM 47.9322 -31.1280 84° East 545 627 38,000  Level FlightAware Transoceanic
Sat 10:32:00 PM 47.9467 -30.9026 85° East 545 627 38,000  Level FlightAware Transoceanic
Sat 10:33:00 PM 47.9607 -30.6771 85° East 545 627 38,000  Level FlightAware Transoceanic
Sat 10:34:00 PM 47.9742 -30.4515 85° East 545 627 38,000  Level FlightAware Transoceanic
Sat 10:35:00 PM 47.9873 -30.2258 85° East 545 627 38,000  Level FlightAware Transoceanic
Sat 10:36:00 PM 47.9994 -30.0108 85° East  Level FlightAware Approximate
Sat 10:37:00 PM 48.0110 -29.7956 85° East  Level FlightAware Approximate
Sat 10:37:00 PM 48.0000 -30.0000 78° East 512 589 38,000  Level ETMS Enhanced Traffic Management System
Sat 10:38:00 PM 48.0275 -29.8101 78° East  Level FlightAware Approximate
Sat 10:39:00 PM 48.0578 -29.5989 78° East  Level FlightAware Approximate
Sat 10:40:00 PM 48.0877 -29.3874 78° East  Level FlightAware Approximate
Sat 10:41:00 PM 48.1171 -29.1757 78° East  Level FlightAware Approximate
Sat 10:42:00 PM 48.1462 -28.9638 78° East  Level FlightAware Approximate
Sat 10:43:00 PM 48.2034 -28.5380 79° East 512 589 38,000  Level FlightAware Transoceanic
Sat 10:44:00 PM 48.2309 -28.3282 79° East 512 589 38,000  Level FlightAware Transoceanic
Sat 10:45:00 PM 48.2581 -28.1182 79° East 512 589 38,000  Level FlightAware Transoceanic
Sat 10:46:00 PM 48.2848 -27.9079 79° East 512 589 38,000  Level FlightAware Transoceanic
Sat 10:47:00 PM 48.3112 -27.6975 79° East 512 589 38,000  Level FlightAware Transoceanic
Sat 10:48:00 PM 48.3372 -27.4868 80° East 512 589 38,000  Level FlightAware Transoceanic
Sat 10:49:00 PM 48.3628 -27.2759 80° East 512 589 38,000  Level FlightAware Transoceanic
Sat 10:50:00 PM 48.3881 -27.0648 80° East 512 589 38,000  Level FlightAware Transoceanic
Sat 10:51:00 PM 48.4129 -26.8535 80° East 512 589 38,000  Level FlightAware Transoceanic
Sat 10:52:00 PM 48.4374 -26.6420 80° East 512 589 38,000  Level FlightAware Transoceanic
Sat 10:53:00 PM 48.4614 -26.4303 80° East 512 589 38,000  Level FlightAware Transoceanic
Sat 10:54:00 PM 48.4851 -26.2184 81° East 512 589 38,000  Level FlightAware Transoceanic
Sat 10:55:00 PM 48.5084 -26.0063 81° East 512 589 38,000  Level FlightAware Transoceanic
Sat 10:56:00 PM 48.5313 -25.7940 81° East 512 589 38,000  Level FlightAware Transoceanic
Sat 10:57:00 PM 48.5538 -25.5815 81° East 512 589 38,000  Level FlightAware Transoceanic
Sat 10:58:00 PM 48.5759 -25.3688 81° East 512 589 38,000  Level FlightAware Transoceanic
Sat 10:59:00 PM 48.5977 -25.1559 81° East 512 589 38,000  Level FlightAware Transoceanic
Sat 11:00:00 PM 48.6190 -24.9429 81° East 512 589 38,000  Level FlightAware Transoceanic
Sat 11:01:00 PM 48.6399 -24.7297 82° East 512 589 38,000  Level FlightAware Transoceanic
Sat 11:02:00 PM 48.6605 -24.5163 82° East 512 589 38,000  Level FlightAware Transoceanic
Sat 11:03:00 PM 48.6806 -24.3027 82° East 512 589 38,000  Level FlightAware Transoceanic
Sat 11:04:00 PM 48.7004 -24.0890 82° East 512 589 38,000  Level FlightAware Transoceanic
Sat 11:05:00 PM 48.7197 -23.8751 82° East 512 589 38,000  Level FlightAware Transoceanic
Sat 11:06:00 PM 48.7387 -23.6610 82° East 512 589 38,000  Level FlightAware Transoceanic
Sat 11:07:00 PM 48.7573 -23.4468 83° East 512 589 38,000  Level FlightAware Transoceanic
Sat 11:08:00 PM 48.7755 -23.2324 83° East 512 589 38,000  Level FlightAware Transoceanic
Sat 11:09:00 PM 48.7932 -23.0178 83° East 512 589 38,000  Level FlightAware Transoceanic
Sat 11:10:00 PM 48.8106 -22.8032 83° East 512 589 38,000  Level FlightAware Transoceanic
Sat 11:11:00 PM 48.8276 -22.5883 83° East 512 589 38,000  Level FlightAware Transoceanic
Sat 11:12:00 PM 48.8442 -22.3733 83° East 512 589 38,000  Level FlightAware Transoceanic
Sat 11:13:00 PM 48.8603 -22.1582 84° East 512 589 38,000  Level FlightAware Transoceanic
Sat 11:14:00 PM 48.8761 -21.9430 84° East 512 589 38,000  Level FlightAware Transoceanic
Sat 11:15:00 PM 48.8915 -21.7276 84° East 512 589 38,000  Level FlightAware Transoceanic
Sat 11:16:00 PM 48.9065 -21.5120 84° East 512 589 38,000  Level FlightAware Transoceanic
Sat 11:17:00 PM 48.9210 -21.2964 84° East 512 589 38,000  Level FlightAware Transoceanic
Sat 11:18:00 PM 48.9352 -21.0806 84° East 512 589 38,000  Level FlightAware Transoceanic
Sat 11:19:00 PM 48.9490 -20.8647 85° East 512 589 38,000  Level FlightAware Transoceanic
Sat 11:20:00 PM 48.9623 -20.6487 85° East 512 589 38,000  Level FlightAware Transoceanic
Sat 11:21:00 PM 48.9753 -20.4326 85° East 512 589 38,000  Level FlightAware Transoceanic
Sat 11:22:00 PM 48.9879 -20.2163 85° East 512 589 38,000  Level FlightAware Transoceanic
Sat 11:23:00 PM 49.0001 -19.9981 85° East  Level FlightAware Approximate
Sat 11:24:00 PM 49.0002 -19.9963 85° East  Level FlightAware Approximate
Sat 11:25:00 PM 49.0113 -19.7778 85° East  Level FlightAware Approximate
Sat 11:26:00 PM 49.0219 -19.5593 86° East  Level FlightAware Approximate
Sat 11:27:00 PM 49.0322 -19.3407 86° East  Level FlightAware Approximate
Sat 11:28:00 PM 49.0421 -19.1220 86° East  Level FlightAware Approximate
Sat 11:29:00 PM 49.0515 -18.9033 86° East  Level FlightAware Approximate
Sat 11:30:00 PM 49.0605 -18.6844 86° East  Level FlightAware Approximate
Sat 11:31:00 PM 49.0691 -18.4655 86° East  Level FlightAware Approximate
Sat 11:32:00 PM 49.0773 -18.2465 87° East  Level FlightAware Approximate
Sat 11:33:00 PM 49.0851 -18.0274 87° East  Level FlightAware Approximate
Sat 11:34:00 PM 49.0925 -17.8083 87° East  Level FlightAware Approximate
Sat 11:35:00 PM 49.0994 -17.5891 87° East  Level FlightAware Approximate
Sat 11:36:00 PM 49.1059 -17.3698 87° East  Level FlightAware Approximate
Sat 11:37:00 PM 49.1121 -17.1505 87° East  Level FlightAware Approximate
Sat 11:38:00 PM 49.1178 -16.9311 88° East  Level FlightAware Approximate
Sat 11:39:00 PM 49.1231 -16.7117 88° East  Level FlightAware Approximate
Sat 11:40:00 PM 49.1279 -16.4922 88° East  Level FlightAware Approximate
Sat 11:41:00 PM 49.1324 -16.2727 88° East  Level FlightAware Approximate
Sat 11:42:00 PM 49.1364 -16.0531 88° East  Level FlightAware Approximate
Sat 11:43:00 PM 49.1400 -15.8336 88° East  Level FlightAware Approximate
Sat 11:44:00 PM 49.1432 -15.6139 89° East  Level FlightAware Approximate
Sat 11:45:00 PM 49.1460 -15.3943 89° East  Level FlightAware Approximate
Sat 11:46:00 PM 49.1484 -15.1747 89° East  Level FlightAware Approximate
Sat 11:47:00 PM 49.1504 -14.9550 89° East  Level FlightAware Approximate
Sat 11:48:00 PM 49.1520 -14.7353 89° East  Level FlightAware Approximate
Sat 11:49:00 PM 49.1533 -14.5156 89° East  Level FlightAware Approximate
Sat 11:50:00 PM 49.1541 -14.2959 90° East  Level FlightAware Approximate
Sat 11:51:00 PM 49.1545 -14.0761 90° East  Level FlightAware Approximate
Sat 11:52:00 PM 49.1545 -13.8564 90° East  Level FlightAware Approximate
Sat 11:53:00 PM 49.1540 -13.6367 90° East  Level FlightAware Approximate
Sat 11:54:00 PM 49.1532 -13.4170 90° East  Level FlightAware Approximate
Sat 11:55:00 PM 49.1519 -13.1973 90° East  Level FlightAware Approximate
Sat 11:56:00 PM 49.1502 -12.9776 91° East  Level FlightAware Approximate
Sat 11:57:00 PM 49.1481 -12.7579 91° East  Level FlightAware Approximate
Sat 11:58:00 PM 49.1456 -12.5383 91° East  Level FlightAware Approximate
Sat 11:59:00 PM 49.1427 -12.3187 91° East  Level FlightAware Approximate
Sun 12:00:00 AM 49.1393 -12.0990 91° East  Level FlightAware Approximate
Sun 12:01:00 AM 49.1355 -11.8795 91° East  Level FlightAware Approximate
Sun 12:02:00 AM 49.1314 -11.6599 92° East  Level FlightAware Approximate
Sun 12:03:00 AM 49.1268 -11.4404 92° East  Level FlightAware Approximate
Sun 12:04:00 AM 49.1217 -11.2210 92° East  Level FlightAware Approximate
Sun 12:05:00 AM 49.1163 -11.0016 92° East  Level FlightAware Approximate
Sun 12:06:00 AM 49.1105 -10.7822 92° East  Level FlightAware Approximate
Sun 12:07:00 AM 49.1042 -10.5629 92° East  Level FlightAware Approximate
Sun 12:08:00 AM 49.0975 -10.3437 93° East  Level FlightAware Approximate
Sun 12:09:00 AM 49.0904 -10.1245 93° East  Level FlightAware Approximate
Sun 12:10:00 AM 49.0829 -9.9054 93° East  Level FlightAware Approximate
Sun 12:11:00 AM 49.0750 -9.6863 93° East  Level FlightAware Approximate
Sun 12:12:00 AM 49.0667 -9.4673 93° East  Level FlightAware Approximate
Sun 12:13:00 AM 49.0579 -9.2484 93° East  Level FlightAware Approximate
Sun 12:14:00 AM 49.0487 -9.0296 94° East  Level FlightAware Approximate
Sun 12:14:57 AM 49.1170 -9.2650 94° East 482 555 38,000  Level FlightAware ADS-B
Sun 12:15:00 AM 49.0392 -8.8108 94° East  Level FlightAware Approximate
Sun 12:15:32 AM 49.1170 -9.1520 90° East 482 555 38,000  Level FlightAware ADS-B
Sun 12:16:22 AM 49.1170 -9.0070 90° East 482 555 38,000 -1,286 Level FlightAware ADS-B
Sun 12:16:42 AM 49.0928 -8.9592 90° East 458 527 36,500 -2,368 Descending FlightAware UK
Sun 12:17:00 AM 49.0930 -8.8983 90° East 458 527 36,500 4,500 Level FlightAware UK
Sun 12:17:02 AM 49.1160 -8.8380 90° East 482 555 38,000  Climbing FlightAware ADS-B
Sun 12:17:18 AM 49.0929 -8.8371 90° East 458 527 36,500 -2,647 Descending FlightAware UK
Sun 12:17:36 AM 49.0926 -8.7760 90° East 456 525 36,500 3,750 Level FlightAware UK
Sun 12:17:42 AM 49.1150 -8.7010 90° East 483 556 38,000  Climbing FlightAware ADS-B
Sun 12:18:00 AM 49.0922 -8.6945 90° East 456 525 36,500 -2,500 Descending FlightAware UK
Sun 12:18:18 AM 49.0920 -8.6333 90° East 456 525 36,500 3,333 Level FlightAware UK
Sun 12:18:27 AM 49.1140 -8.5520 90° East 483 556 38,000  Climbing FlightAware ADS-B
Sun 12:18:42 AM 49.0915 -8.5517 90° East 458 527 36,500 -2,727 Descending FlightAware UK
Sun 12:19:00 AM 49.0910 -8.4905 91° East 458 527 36,500 3,600 Level FlightAware UK
Sun 12:19:07 AM 49.1130 -8.4170 91° East 483 556 38,000  Climbing FlightAware ADS-B
Sun 12:19:24 AM 49.0902 -8.4088 91° East 456 525 36,500 -2,571 Descending FlightAware UK
Sun 12:19:42 AM 49.0896 -8.3474 91° East 460 529 36,500 3,214 Level FlightAware UK
Sun 12:19:52 AM 49.1110 -8.2630 91° East 484 557 38,000  Climbing FlightAware ADS-B
Sun 12:20:12 AM 49.0885 -8.2453 91° East 456 525 36,500 -2,368 Descending FlightAware UK
Sun 12:20:30 AM 49.0878 -8.1840 91° East 458 527 36,500 4,500 Level FlightAware UK
Sun 12:20:32 AM 49.1100 -8.1240 91° East 485 558 38,000  Climbing FlightAware ADS-B
Sun 12:20:48 AM 49.0873 -8.1226 91° East 456 525 36,500 -2,647 Descending FlightAware UK
Sun 12:21:06 AM 49.0868 -8.0612 91° East 456 525 36,500 3,103 Level FlightAware UK
Sun 12:21:17 AM 49.1080 -7.9700 91° East 485 558 38,000  Climbing FlightAware ADS-B
Sun 12:21:36 AM 49.0856 -7.9580 91° East 458 527 36,500 -2,432 Descending FlightAware UK
Sun 12:21:54 AM 49.0848 -7.8964 91° East 456 525 36,500 4,286 Level FlightAware UK
Sun 12:21:57 AM 49.1060 -7.8330 91° East 486 559 38,000  Climbing FlightAware ADS-B
Sun 12:22:12 AM 49.0840 -7.8348 91° East 460 529 36,500 -2,727 Descending FlightAware UK
Sun 12:22:30 AM 49.0831 -7.7732 91° East 456 525 36,500 3,600 Level FlightAware UK
Sun 12:22:37 AM 49.1040 -7.7030 91° East 487 560 38,000  Climbing FlightAware ADS-B
Sun 12:22:54 AM 49.0819 -7.6910 91° East 458 527 36,500 -2,571 Descending FlightAware UK
Sun 12:23:12 AM 49.0811 -7.6293 91° East 456 525 36,500 3,214 Level FlightAware UK
Sun 12:23:22 AM 49.1020 -7.5460 91° East 488 562 38,000  Climbing FlightAware ADS-B
Sun 12:23:42 AM 49.0807 -7.5263 91° East 458 527 36,500 -2,368 Descending FlightAware UK
Sun 12:24:00 AM 49.0805 -7.4644 90° East 456 525 36,500 4,500 Level FlightAware UK
Sun 12:24:02 AM 49.1020 -7.4090 90° East 489 563 38,000  Climbing FlightAware ADS-B
Sun 12:24:18 AM 49.0803 -7.4026 90° East 454 522 36,500 -2,647 Descending FlightAware UK
Sun 12:24:36 AM 49.0800 -7.3406 90° East 458 527 36,500 3,103 Level FlightAware UK
Sun 12:24:47 AM 49.1000 -7.2540 90° East 490 564 38,000  Climbing FlightAware ADS-B
Sun 12:25:06 AM 49.0792 -7.2366 90° East 458 527 36,500 -2,432 Descending FlightAware UK
Sun 12:25:24 AM 49.0788 -7.1745 91° East 458 527 36,500 4,286 Level FlightAware UK
Sun 12:25:27 AM 49.0990 -7.1180 91° East 490 564 38,000  Climbing FlightAware ADS-B
Sun 12:25:42 AM 49.0783 -7.1125 91° East 460 529 36,500 -2,727 Descending FlightAware UK
Sun 12:26:00 AM 49.0778 -7.0504 91° East 460 529 36,500 3,600 Level FlightAware UK
Sun 12:26:07 AM 49.0980 -6.9750 91° East 490 564 38,000  Climbing FlightAware ADS-B
Sun 12:26:24 AM 49.0768 -6.9676 91° East 464 534 36,500 -2,571 Descending FlightAware UK
Sun 12:26:42 AM 49.0762 -6.9056 91° East 462 532 36,500 3,913 Level FlightAware UK
Sun 12:26:47 AM 49.0960 -6.8380 91° East 489 563 38,000  Climbing FlightAware ADS-B
Sun 12:27:06 AM 49.0752 -6.8222 91° East 462 532 36,500 -2,432 Descending FlightAware UK
Sun 12:27:24 AM 49.0746 -6.7604 91° East 456 525 36,500 3,462 Level FlightAware UK
Sun 12:27:32 AM 49.0940 -6.6830 91° East 488 562 38,000  Climbing FlightAware ADS-B
Sun 12:27:48 AM 49.0738 -6.6785 91° East 456 525 36,500 -2,647 Descending FlightAware UK
Sun 12:28:06 AM 49.0729 -6.6170 91° East 456 525 36,500 3,103 Level FlightAware UK
Sun 12:28:17 AM 49.0920 -6.5290 91° East 488 562 38,000  Climbing FlightAware ADS-B
Sun 12:28:36 AM 49.0715 -6.5143 91° East 456 525 36,500 -2,432 Descending FlightAware UK
Sun 12:28:54 AM 49.0707 -6.4527 91° East 454 522 36,500 4,286 Level FlightAware UK
Sun 12:28:57 AM 49.0900 -6.3930 91° East 487 560 38,000  Climbing FlightAware ADS-B
Sun 12:29:12 AM 49.0697 -6.3911 91° East 454 522 36,500 -2,727 Descending FlightAware UK
Sun 12:29:30 AM 49.0687 -6.3295 91° East 454 522 36,500 3,600 Level FlightAware UK
Sun 12:29:37 AM 49.0870 -6.2530 91° East 487 560 38,000  Climbing FlightAware ADS-B
Sun 12:29:54 AM 49.0671 -6.2474 91° East 454 522 36,500 -2,571 Descending FlightAware UK
Sun 12:30:12 AM 49.0660 -6.1858 91° East 454 522 36,500 3,214 Level FlightAware UK
Sun 12:30:22 AM 49.0840 -6.1010 91° East 487 560 38,000  Climbing FlightAware ADS-B
Sun 12:30:42 AM 49.0644 -6.0826 91° East 454 522 36,500 -2,368 Descending FlightAware UK
Sun 12:31:00 AM 49.0636 -6.0217 91° East 454 522 36,500 4,500 Level FlightAware UK
Sun 12:31:02 AM 49.0820 -5.9640 91° East 487 560 38,000  Climbing FlightAware ADS-B
Sun 12:31:18 AM 49.0625 -5.9601 91° East 456 525 36,500 -2,647 Descending FlightAware UK
Sun 12:31:36 AM 49.0612 -5.8986 92° East 456 525 36,500 3,103 Level FlightAware UK
Sun 12:31:47 AM 49.0790 -5.8170 92° East 486 559 38,000  Climbing FlightAware ADS-B
Sun 12:32:06 AM 49.0590 -5.7954 92° East 454 522 36,500 -2,432 Descending FlightAware UK
Sun 12:32:24 AM 49.0578 -5.7340 92° East 454 522 36,500 4,286 Level FlightAware UK
Sun 12:32:27 AM 49.0760 -5.6720 92° East 485 558 38,000  Climbing FlightAware ADS-B
Sun 12:32:42 AM 49.0567 -5.6727 92° East 452 520 36,500 -2,727 Descending FlightAware UK
Sun 12:33:00 AM 49.0554 -5.6113 92° East 452 520 36,500 3,600 Level FlightAware UK
Sun 12:33:07 AM 49.0720 -5.5310 92° East 484 557 38,000  Climbing FlightAware ADS-B
Sun 12:33:25 AM 49.0539 -5.5290 92° East 454 522 36,500 -2,500 Descending FlightAware UK
Sun 12:33:43 AM 49.0527 -5.4678 92° East 452 520 36,500 3,333 Level FlightAware UK
Sun 12:33:52 AM 49.0690 -5.3780 92° East 483 556 38,000  Climbing FlightAware ADS-B
Sun 12:34:12 AM 49.0502 -5.3667 92° East 450 518 36,500 -2,368 Descending FlightAware UK
Sun 12:34:30 AM 49.0484 -5.3057 92° East 452 520 36,500 4,500 Level FlightAware UK
Sun 12:34:32 AM 49.0650 -5.2430 92° East 483 556 38,000  Climbing FlightAware ADS-B
Sun 12:34:48 AM 49.0467 -5.2447 92° East 450 518 36,500 -2,647 Descending FlightAware UK
Sun 12:35:06 AM 49.0449 -5.1837 93° East 450 518 36,500 3,750 Level FlightAware UK
Sun 12:35:12 AM 49.0610 -5.1100 93° East 484 557 38,000  Climbing FlightAware ADS-B
Sun 12:35:31 AM 49.0426 -5.1015 93° East 450 518 36,500 -2,432 Descending FlightAware UK
Sun 12:35:49 AM 49.0409 -5.0404 92° East 450 518 36,500 3,462 Level FlightAware UK
Sun 12:35:57 AM 49.0560 -4.9550 92° East 484 557 38,000  Climbing FlightAware ADS-B
Sun 12:36:13 AM 49.0387 -4.9588 92° East 450 518 36,500 -2,647 Descending FlightAware UK
Sun 12:36:31 AM 49.0370 -4.8975 92° East 450 518 36,500 4,737 Level FlightAware UK
Sun 12:36:32 AM 49.0530 -4.8370 92° East 485 558 38,000  Climbing FlightAware ADS-B
Sun 12:36:49 AM 49.0353 -4.8362 92° East 450 518 36,500 -2,571 Descending FlightAware UK
Sun 12:37:07 AM 49.0337 -4.7748 92° East 450 518 36,500  Level FlightAware UK
Sun 12:37:25 AM 49.0318 -4.7128 93° East 452 520 36,500  Level FlightAware UK
Sun 12:37:43 AM 49.0302 -4.6522 92° East 452 520 36,500  Level FlightAware UK
Sun 12:38:01 AM 49.0284 -4.5908 92° East 454 522 36,500 4,737 Level FlightAware UK
Sun 12:38:02 AM 49.0440 -4.5380 92° East 487 560 38,000  Climbing FlightAware ADS-B
Sun 12:38:19 AM 49.0266 -4.5293 92° East 452 520 36,500 -2,571 Descending FlightAware UK
Sun 12:38:37 AM 49.0248 -4.4671 93° East 452 520 36,500 3,214 Level FlightAware UK
Sun 12:38:47 AM 49.0380 -4.3780 93° East 487 560 38,000  Climbing FlightAware ADS-B
Sun 12:39:07 AM 49.0215 -4.3645 93° East 452 520 36,500 -2,368 Descending FlightAware UK
Sun 12:39:25 AM 49.0195 -4.3028 93° East 452 520 36,500 4,500 Level FlightAware UK
Sun 12:39:27 AM 49.0340 -4.2420 93° East 488 562 38,000  Climbing FlightAware ADS-B
Sun 12:39:43 AM 49.0174 -4.2404 93° East 452 520 36,500 -2,647 Descending FlightAware UK
Sun 12:40:01 AM 49.0153 -4.1794 93° East 452 520 36,500  Level FlightAware UK
Sun 12:40:19 AM 49.0132 -4.1170 93° East 452 520 36,500  Level FlightAware UK
Sun 12:40:37 AM 49.0110 -4.0553 93° East 452 520 36,500  Level FlightAware UK
Sun 12:40:55 AM 49.0087 -3.9936 93° East 452 520 36,500 3,000 Level FlightAware UK
Sun 12:41:07 AM 49.0210 -3.9060 93° East 489 563 38,000  Climbing FlightAware ADS-B
Sun 12:41:25 AM 49.0050 -3.8905 93° East 452 520 36,500 -2,500 Descending FlightAware UK
Sun 12:41:43 AM 49.0027 -3.8287 93° East 452 520 36,500 4,091 Level FlightAware UK
Sun 12:41:47 AM 49.0160 -3.7660 93° East 490 564 38,000  Climbing FlightAware ADS-B
Sun 12:42:07 AM 48.9995 -3.7461 93° East 452 520 36,500 -2,368 Descending FlightAware UK
Sun 12:42:25 AM 48.9972 -3.6841 93° East 454 522 36,500 4,500 Level FlightAware UK
Sun 12:42:27 AM 49.0100 -3.6260 93° East 492 566 38,000  Climbing FlightAware ADS-B
Sun 12:42:43 AM 48.9948 -3.6222 93° East 456 525 36,500 -2,647 Descending FlightAware UK
Sun 12:43:01 AM 48.9922 -3.5595 93° East 454 522 36,500 3,103 Level FlightAware UK
Sun 12:43:12 AM 49.0040 -3.4780 93° East 492 566 38,000  Climbing FlightAware ADS-B
Sun 12:43:31 AM 48.9881 -3.4556 93° East 456 525 36,500 -2,432 Descending FlightAware UK
Sun 12:43:49 AM 48.9857 -3.3944 93° East 456 525 36,500 4,286 Level FlightAware UK
Sun 12:43:52 AM 48.9980 -3.3400 93° East 491 565 38,000  Climbing FlightAware ADS-B
Sun 12:44:07 AM 48.9831 -3.3317 93° East 456 525 36,500 -2,727 Descending FlightAware UK
Sun 12:44:25 AM 48.9804 -3.2698 94° East 456 525 36,500 3,600 Level FlightAware UK
Sun 12:44:32 AM 48.9920 -3.2100 94° East 491 565 38,000  Climbing FlightAware ADS-B
Sun 12:44:49 AM 48.9768 -3.1880 94° East 456 525 36,500 -2,571 Descending FlightAware UK
Sun 12:45:07 AM 48.9741 -3.1263 94° East 454 522 36,500 3,214 Level FlightAware UK
Sun 12:45:17 AM 48.9850 -3.0550 94° East 490 564 38,000  Climbing FlightAware ADS-B
Sun 12:45:37 AM 48.9697 -3.0228 94° East 454 522 36,500 -2,368 Descending FlightAware UK
Sun 12:45:55 AM 48.9668 -2.9610 94° East 454 522 36,500 4,500 Level FlightAware UK
Sun 12:45:57 AM 48.9780 -2.8990 94° East 490 564 38,000  Climbing FlightAware ADS-B
Sun 12:46:13 AM 48.9639 -2.8993 94° East 452 520 36,500 -2,647 Descending FlightAware UK
Sun 12:46:31 AM 48.9610 -2.8383 94° East 454 522 36,500 3,750 Level FlightAware UK
Sun 12:46:37 AM 48.9720 -2.7630 94° East 491 565 38,000  Climbing FlightAware ADS-B
Sun 12:46:55 AM 48.9569 -2.7559 94° East 452 520 36,500 -2,500 Descending FlightAware UK
Sun 12:47:13 AM 48.9539 -2.6934 94° East 452 520 36,500 3,333 Level FlightAware UK
Sun 12:47:22 AM 48.9650 -2.6180 94° East 491 565 38,000  Climbing FlightAware ADS-B
Sun 12:47:38 AM 48.9499 -2.6103 94° East 452 520 36,500 -2,727 Descending FlightAware UK
Sun 12:47:55 AM 48.9468 -2.5488 94° East 452 520 36,500 3,103 Level FlightAware UK
Sun 12:48:07 AM 48.9570 -2.4640 94° East 492 566 38,000  Climbing FlightAware ADS-B
Sun 12:48:25 AM 48.9417 -2.4452 94° East 450 518 36,500 -2,500 Descending FlightAware UK
Sun 12:48:43 AM 48.9388 -2.3834 94° East 452 520 36,500 4,091 Level FlightAware UK
Sun 12:48:47 AM 48.9490 -2.3240 94° East 493 567 38,000  Climbing FlightAware ADS-B
Sun 12:49:07 AM 48.9347 -2.3014 94° East 450 518 36,500 -2,308 Descending FlightAware UK
Sun 12:49:26 AM 48.9313 -2.2378 95° East 450 518 36,500 4,500 Level FlightAware UK
Sun 12:49:27 AM 48.9420 -2.1850 95° East 493 567 38,000  Climbing FlightAware ADS-B
Sun 12:49:44 AM 48.9281 -2.1759 95° East 450 518 36,500 -2,647 Descending FlightAware UK
Sun 12:50:01 AM 48.9248 -2.1146 95° East 450 518 36,500 3,214 Level FlightAware UK
Sun 12:50:12 AM 48.9330 -2.0290 95° East 494 568 38,000  Climbing FlightAware ADS-B
Sun 12:50:32 AM 48.9192 -2.0106 95° East 452 520 36,500 -2,368 Descending FlightAware UK
Sun 12:50:50 AM 48.9158 -1.9486 95° East 452 520 36,500 4,500 Level FlightAware UK
Sun 12:50:52 AM 48.9260 -1.8930 95° East 495 570 38,000  Climbing FlightAware ADS-B
Sun 12:51:08 AM 48.9127 -1.8863 95° East 452 520 36,500 -2,647 Descending FlightAware UK
Sun 12:51:26 AM 48.9093 -1.8234 95° East 452 520 36,500 3,750 Level FlightAware UK
Sun 12:51:32 AM 48.9180 -1.7570 95° East 496 571 38,000  Climbing FlightAware ADS-B
Sun 12:51:50 AM 48.9047 -1.7407 95° East 454 522 36,500 -2,500 Descending FlightAware UK
Sun 12:52:08 AM 48.9008 -1.6778 95° East 454 522 36,500 4,091 Level FlightAware UK
Sun 12:52:12 AM 48.9100 -1.6140 95° East 497 572 38,000  Climbing FlightAware ADS-B
Sun 12:52:32 AM 48.8959 -1.5945 95° East 454 522 36,500 -2,368 Descending FlightAware UK
Sun 12:52:50 AM 48.8919 -1.5315 95° East 454 522 36,500 3,600 Level FlightAware UK
Sun 12:52:57 AM 48.9000 -1.4570 95° East 497 572 38,000  Climbing FlightAware ADS-B
Sun 12:53:14 AM 48.8872 -1.4480 95° East 454 522 36,500 -2,571 Descending FlightAware UK
Sun 12:53:32 AM 48.8837 -1.3861 95° East 454 522 36,500 3,214 Level FlightAware UK
Sun 12:53:42 AM 48.8910 -1.3030 95° East 498 573 38,000  Climbing FlightAware ADS-B
Sun 12:54:02 AM 48.8775 -1.2811 95° East 454 522 36,500 -2,368 Descending FlightAware UK
Sun 12:54:20 AM 48.8738 -1.2192 95° East 454 522 36,500 4,500 Level FlightAware UK
Sun 12:54:22 AM 48.8820 -1.1620 95° East 499 574 38,000  Climbing FlightAware ADS-B
Sun 12:54:38 AM 48.8699 -1.1558 95° East 456 525 36,500 -2,647 Descending FlightAware UK
Sun 12:54:56 AM 48.8659 -1.0932 95° East 456 525 36,500 3,750 Level FlightAware UK
Sun 12:55:02 AM 48.8740 -1.0240 95° East 499 574 38,000  Climbing FlightAware ADS-B
Sun 12:55:20 AM 48.8605 -1.0083 95° East 456 525 36,500 -2,500 Descending FlightAware UK
Sun 12:55:38 AM 48.8564 -0.9464 96° East 456 525 36,500 3,333 Level FlightAware UK
Sun 12:55:47 AM 48.8630 -0.8690 96° East 500 575 38,000  Climbing FlightAware ADS-B
Sun 12:56:02 AM 48.8511 -0.8627 96° East 458 527 36,500 -2,727 Descending FlightAware UK
Sun 12:56:20 AM 48.8470 -0.8000 96° East 458 527 36,500 3,600 Level FlightAware UK
Sun 12:56:27 AM 48.8540 -0.7270 96° East 499 574 38,000  Climbing FlightAware ADS-B
Sun 12:56:44 AM 48.8414 -0.7157 96° East 460 529 36,500 -2,571 Descending FlightAware UK
Sun 12:57:02 AM 48.8373 -0.6539 96° East 458 527 36,500 3,214 Level FlightAware UK
Sun 12:57:12 AM 48.8430 -0.5710 96° East 498 573 38,000  Climbing FlightAware ADS-B
Sun 12:57:32 AM 48.8303 -0.5492 96° East 460 529 36,500 -2,308 Descending FlightAware UK
Sun 12:57:51 AM 48.8260 -0.4861 96° East 460 529 36,500 4,500 Level FlightAware UK
Sun 12:57:52 AM 48.8340 -0.4320 96° East 496 571 38,000  Climbing FlightAware ADS-B
Sun 12:58:09 AM 48.8218 -0.4239 96° East 460 529 36,500 -2,571 Descending FlightAware UK
Sun 12:58:27 AM 48.8178 -0.3619 96° East 458 527 36,500 3,913 Level FlightAware UK
Sun 12:58:32 AM 48.8240 -0.2950 96° East 495 570 38,000  Climbing FlightAware ADS-B
Sun 12:58:51 AM 48.8121 -0.2794 96° East 460 529 36,500 -2,500 Descending FlightAware UK
Sun 12:59:08 AM 48.8077 -0.2182 96° East 458 527 36,500 3,462 Level FlightAware UK
Sun 12:59:17 AM 48.8130 -0.1430 96° East 495 570 38,000  Climbing FlightAware ADS-B
Sun 12:59:33 AM 48.8017 -0.1352 96° East 460 529 36,500 -3,176 Descending FlightAware UK
Sun 12:59:51 AM 48.7972 -0.0735 96° East 462 532 36,200 3,500 Descending FlightAware UK
Sun 12:59:57 AM 48.8030 -0.0020 96° East 496 571 37,900  Climbing FlightAware ADS-B
Sun 01:00:15 AM 48.7912 0.0097 96° East 468 539 36,200 -3,167 Descending FlightAware UK
Sun 01:00:33 AM 48.7866 0.0718 96° East 462 532 36,000 2,889 Descending FlightAware UK
Sun 01:00:42 AM 48.7920 0.1540 96° East 494 568 37,500 -500 Climbing FlightAware ADS-B
Sun 01:00:57 AM 48.7807 0.1551 96° East 458 527 35,800 -3,455 Descending FlightAware UK
Sun 01:01:15 AM 48.7762 0.2163 96° East 454 522 35,600 3,360 Descending FlightAware UK
Sun 01:01:22 AM 48.7820 0.2850 96° East 492 566 37,200 -500 Climbing FlightAware ADS-B
Sun 01:01:39 AM 48.7700 0.2980 96° East 450 518 35,400 -3,086 Descending FlightAware UK
Sun 01:01:57 AM 48.7653 0.3597 97° East 452 520 35,400 4,174 Level FlightAware UK
Sun 01:02:02 AM 48.7710 0.4270 97° East 495 570 37,000 250 Climbing FlightAware ADS-B
Sun 01:02:21 AM 48.7588 0.4437 97° East 456 525 35,500 -2,432 Descending FlightAware UK
Sun 01:02:39 AM 48.7540 0.5052 97° East 462 532 35,500 3,462 Level FlightAware UK
Sun 01:02:47 AM 48.7590 0.5790 97° East 500 575 37,000  Climbing FlightAware ADS-B
Sun 01:03:03 AM 48.7474 0.5894 97° East 462 532 35,500 -2,647 Descending FlightAware UK
Sun 01:03:21 AM 48.7426 0.6520 97° East 462 532 35,500 3,750 Level FlightAware UK
Sun 01:03:27 AM 48.7480 0.7190 97° East 498 573 37,000  Climbing FlightAware ADS-B
Sun 01:03:45 AM 48.7362 0.7357 97° East 462 532 35,500 -2,500 Descending FlightAware UK
Sun 01:04:03 AM 48.7312 0.7986 97° East 464 534 35,500 3,333 Level FlightAware UK
Sun 01:04:12 AM 48.7350 0.8760 97° East 494 568 37,000  Climbing FlightAware ADS-B
Sun 01:04:27 AM 48.7246 0.8811 97° East 464 534 35,500 -2,727 Descending FlightAware UK
Sun 01:04:45 AM 48.7196 0.9426 97° East 464 534 35,500 3,600 Level FlightAware UK
Sun 01:04:52 AM 48.7240 1.0150 97° East 490 564 37,000  Climbing FlightAware ADS-B
Sun 01:05:09 AM 48.7131 1.0243 97° East 462 532 35,500 -2,571 Descending FlightAware UK
Sun 01:05:27 AM 48.7080 1.0859 97° East 464 534 35,500 3,913 Level FlightAware UK
Sun 01:05:32 AM 48.7130 1.1520 97° East 487 560 37,000  Climbing FlightAware ADS-B
Sun 01:05:51 AM 48.7015 1.1662 97° East 460 529 35,500 -2,432 Descending FlightAware UK
Sun 01:06:09 AM 48.6963 1.2273 97° East 458 527 35,500 3,462 Level FlightAware UK
Sun 01:06:17 AM 48.7000 1.3020 97° East 484 557 37,000  Climbing FlightAware ADS-B
Sun 01:06:34 AM 48.6892 1.3084 97° East 458 527 35,500 -2,647 Descending FlightAware UK
Sun 01:06:51 AM 48.6842 1.3680 97° East 456 525 35,500 3,913 Level FlightAware UK
Sun 01:06:57 AM 48.6890 1.4360 97° East 482 555 37,000  Climbing FlightAware ADS-B
Sun 01:07:16 AM 48.6772 1.4487 97° East 454 522 35,500  Descending FlightAware UK
Sun 01:07:27 AM 48.6782 1.5562 97° East 482 555 37,000  Climbing FlightAware ADS-B
Sun 01:07:46 AM 48.6687 1.5494 97° East 454 522 35,500  Descending FlightAware UK
Sun 01:08:02 AM 48.6680 1.6722 97° East 481 554 37,000  Climbing FlightAware ADS-B
Sun 01:08:22 AM 48.6584 1.6691 97° East 452 520 35,500 -2,368 Descending FlightAware UK
Sun 01:08:40 AM 48.6531 1.7296 98° East 456 525 35,500 4,500 Level FlightAware UK
Sun 01:08:42 AM 48.6564 1.8045 98° East 481 554 37,000  Climbing FlightAware ADS-B
Sun 01:08:58 AM 48.6477 1.7892 98° East 460 529 35,500 -2,647 Descending FlightAware UK
Sun 01:09:16 AM 48.6424 1.8483 98° East 458 527 35,500 3,462 Level FlightAware UK
Sun 01:09:24 AM 48.6437 1.9457 98° East 481 554 37,000  Climbing FlightAware ADS-B
Sun 01:09:40 AM 48.6351 1.9280 98° East 460 529 35,500  Descending FlightAware UK
Sun 01:09:57 AM 48.6337 2.0542 98° East 478 550 37,000  Climbing FlightAware ADS-B
Sun 01:10:16 AM 48.6241 2.0474 98° East 460 529 35,500  Descending FlightAware UK
Sun 01:10:27 AM 48.6270 2.1310 98° East 476 548 37,000  Climbing FlightAware ADS-B
Sun 01:10:46 AM 48.6151 2.1461 98° East 458 527 35,500  Descending FlightAware UK
Sun 01:10:55 AM 48.6161 2.2443 98° East 477 549 37,000  Climbing FlightAware ADS-B
Sun 01:11:10 AM 48.6079 2.2256 98° East 458 527 35,500  Descending FlightAware UK
Sun 01:11:26 AM 48.6066 2.3466 98° East 475 547 37,000 1,324 Climbing FlightAware ADS-B
Sun 01:12:18 AM 48.5905 2.5160 98° East 474 545 37,000  Level FlightAware ADS-B
Sun 01:12:48 AM 48.5807 2.6159 98° East 474 545 37,000  Level FlightAware ADS-B
Sun 01:13:24 AM 48.5683 2.7333 99° East 474 545 37,000  Level FlightAware ADS-B
Sun 01:13:57 AM 48.5560 2.8210 102° East 475 547 37,000  Level FlightAware ADS-B
Sun 01:14:26 AM 48.5383 2.9319 104° East 475 547 37,000  Level FlightAware ADS-B
Sun 01:15:22 AM 48.5090 3.1010 105° East 477 549 37,000  Level FlightAware ADS-B
Sun 01:16:01 AM 48.4852 3.2351 105° East 478 550 37,000  Level FlightAware ADS-B
Sun 01:16:47 AM 48.4600 3.3780 105° East 478 550 37,000  Level FlightAware ADS-B
Sun 01:17:27 AM 48.4380 3.5040 105° East 480 552 37,000  Level FlightAware ADS-B
Sun 01:18:12 AM 48.4110 3.6530 105° East 483 556 37,000  Level FlightAware ADS-B
Sun 01:18:52 AM 48.3880 3.7810 105° East 485 558 37,000  Level FlightAware ADS-B
Sun 01:19:32 AM 48.3640 3.9160 105° East 489 563 37,000  Level FlightAware ADS-B
Sun 01:20:17 AM 48.3380 4.0560 106° East 489 563 37,000  Level FlightAware ADS-B
Sun 01:20:57 AM 48.3140 4.1910 105° East 488 562 37,000  Level FlightAware ADS-B
Sun 01:21:37 AM 48.2900 4.3220 105° East 488 562 37,000  Level FlightAware ADS-B
Sun 01:22:22 AM 48.2620 4.4720 106° East 489 563 37,000  Level FlightAware ADS-B
Sun 01:23:02 AM 48.2390 4.5950 106° East 488 562 37,000  Level FlightAware ADS-B
Sun 01:23:47 AM 48.2110 4.7450 106° East 489 563 37,000  Level FlightAware ADS-B
Sun 01:24:27 AM 48.1860 4.8740 106° East 487 560 37,000  Level FlightAware ADS-B
Sun 01:25:12 AM 48.1600 5.0090 106° East 480 552 37,000  Level FlightAware ADS-B
Sun 01:25:52 AM 48.1340 5.1450 106° East 474 545 37,000 -375 Level FlightAware ADS-B
Sun 01:26:32 AM 48.1100 5.2730 106° East 481 554 36,500 -1,341 Descending FlightAware ADS-B
Sun 01:27:17 AM 48.0830 5.4090 107° East 483 556 35,100 -1,694 Descending FlightAware ADS-B
Sun 01:27:57 AM 48.0560 5.5410 107° East 474 545 34,100 -1,271 Descending FlightAware ADS-B
Sun 01:28:42 AM 48.0310 5.6720 106° East 465 535 33,300 -1,412 Descending FlightAware ADS-B
Sun 01:29:22 AM 48.0060 5.7970 107° East 458 527 32,100 -1,425 Descending FlightAware ADS-B
Sun 01:30:02 AM 47.9810 5.9240 106° East 458 527 31,400 -776 Descending FlightAware ADS-B
Sun 01:30:47 AM 47.9530 6.0590 107° East 459 528 31,000 -300 Descending FlightAware ADS-B
Sun 01:31:22 AM 47.9310 6.1690 107° East 463 533 31,000  Level FlightAware ADS-B
Sun 01:32:12 AM 47.9010 6.3160 107° East 469 540 31,000  Level FlightAware ADS-B
Sun 01:32:47 AM 47.8780 6.4270 107° East 472 543 31,000  Level FlightAware ADS-B
Sun 01:33:37 AM 47.8490 6.5700 107° East 473 544 31,000 -662 Level FlightAware ADS-B
Sun 01:35:12 AM 47.7890 6.8630 107° East 449 517 29,400 -1,491 Descending FlightAware ADS-B
Sun 01:36:22 AM 47.7500 7.0630 106° East 435 501 26,900 -2,143 Descending FlightAware ADS-B
Sun 01:37:32 AM 47.7070 7.2600 108° East 417 480 24,400 -2,057 Descending FlightAware ADS-B
Sun 01:38:42 AM 47.6660 7.4470 108° East 397 457 22,100 -1,971 Descending FlightAware ADS-B
Sun 01:39:52 AM 47.6270 7.6260 108° East 384 442 19,800 -1,467 Descending FlightAware ADS-B
Sun 01:40:57 AM 47.5910 7.7790 109° East 346 398 18,800 -1,080 Descending FlightAware ADS-B
Sun 01:42:22 AM 47.5510 7.9510 109° East 292 336 17,100 -1,246 Descending FlightAware ADS-B
Sun 01:43:07 AM 47.5320 8.0360 108° East 290 334 16,100 -1,333 Descending FlightAware ADS-B
Sun 01:43:52 AM 47.5110 8.1230 110° East 284 327 15,100 -776 Descending FlightAware ADS-B
Sun 01:44:32 AM 47.4940 8.1940 109° East 284 327 15,000 -75 Descending FlightAware ADS-B
Sun 01:45:12 AM 47.4750 8.2700 110° East 287 330 15,000  Level FlightAware ADS-B
Sun 01:45:27 AM 47.4630 8.2980 122° Southeast 285 328 15,000 -300 Level FlightAware ADS-B
Sun 01:46:12 AM 47.4140 8.3460 146° Southeast 281 323 14,700 -686 Descending FlightAware ADS-B
Sun 01:46:37 AM 47.3870 8.3720 147° Southeast 277 319 14,200 -1,200 Descending FlightAware ADS-B
Sun 01:47:07 AM 47.3540 8.3980 152° Southeast 268 308 13,600 -1,200 Descending FlightAware ADS-B
Sun 01:47:22 AM 47.3370 8.3950 187° South 260 299 13,300 -1,309 Descending FlightAware ADS-B
Sun 01:48:02 AM 47.2940 8.3640 206° Southwest 260 299 12,400 -1,350 Descending FlightAware ADS-B
Sun 01:48:42 AM 47.2540 8.3360 205° Southwest 259 298 11,500 -1,418 Descending FlightAware ADS-B
Sun 01:48:57 AM 47.2330 8.3290 193° South 262 302 11,100 -1,400 Descending FlightAware ADS-B
Sun 01:49:12 AM 47.2160 8.3380 160° South 263 303 10,800 -1,200 Descending FlightAware ADS-B
Sun 01:49:27 AM 47.2030 8.3550 138° Southeast 263 303 10,500 -1,200 Descending FlightAware ADS-B
Sun 01:49:42 AM 47.1930 8.3760 125° Southeast 261 300 10,200 -1,200 Descending FlightAware ADS-B
Sun 01:49:52 AM 47.1910 8.3950 99° East 259 298 10,000 -1,200 Descending FlightAware ADS-B
Sun 01:50:22 AM 47.1920 8.4470 88° East 252 290 9,400 -900 Descending FlightAware ADS-B
Sun 01:50:52 AM 47.1920 8.4970 90° East 236 272 9,100 -545 Descending FlightAware ADS-B
Sun 01:51:17 AM 47.1920 8.5350 90° East 221 254 8,900 -500 Descending FlightAware ADS-B
Sun 01:51:52 AM 47.1920 8.5820 90° East 206 237 8,600 -771 Descending FlightAware ADS-B
Sun 01:52:27 AM 47.1920 8.6330 90° East 200 230 8,000 -923 Descending FlightAware ADS-B
Sun 01:52:57 AM 47.1930 8.6740 88° East 198 228 7,600 -873 Descending FlightAware ADS-B
Sun 01:53:22 AM 47.1950 8.7060 85° East 197 227 7,200 -1,080 Descending FlightAware ADS-B
Sun 01:53:47 AM 47.2000 8.7360 76° East 196 226 6,700 -1,200 Descending FlightAware ADS-B
Sun 01:54:07 AM 47.2170 8.7470 24° Northeast 190 219 6,300 -800 Descending FlightAware ADS-B
Sun 01:54:32 AM 47.2380 8.7510 North 175 201 6,100 -655 Descending FlightAware ADS-B
Sun 01:55:02 AM 47.2600 8.7430 346° North 163 188 5,700 -873 Descending FlightAware ADS-B
Sun 01:55:27 AM 47.2780 8.7330 339° North 158 182 5,300 -873 Descending FlightAware ADS-B
Sun 01:55:57 AM 47.2970 8.7190 333° Northwest 152 175 4,900 -600 Descending FlightAware ADS-B
Sun 01:56:27 AM 47.3160 8.7060 335° Northwest 154 177 4,700 -764 Descending FlightAware ADS-B
Sun 01:56:52 AM 47.3320 8.6940 333° Northwest 156 180 4,200 -1,091 Descending FlightAware ADS-B
Sun 01:57:22 AM 47.3510 8.6820 337° Northwest 152 175 3,700 -982 Descending FlightAware ADS-B
Sun 01:57:47 AM 47.3670 8.6700 333° Northwest 147 169 3,300 -900 Descending FlightAware ADS-B
Sun 01:58:02 AM 47.3750 8.6650 337° Northwest 137 158 3,100 -840 Descending FlightAware ADS-B
Sun 01:58:37 AM 47.3940 8.6510 333° Northwest 130 150 2,600 -857 Descending FlightAware ADS-B
Sun 01:59:12 AM 47.4150 8.6370 336° Northwest 139 160 2,100 -831 Descending FlightAware ADS-B
Sun 01:59:42 AM 47.4310 8.6250 333° Northwest 139 160 1,700 -600 Descending FlightAware ADS-B
Sun 02:00:32 AM 47.4580 8.6060 335° Northwest 126 145 1,300 -480 Descending FlightAware ADS-B

Login

Don't have an account? Register now (free) for customized features, flight alerts, and more!